sensor_id;sensor_type;location;lat;lon;timestamp;P1;durP1;ratioP1;P2;durP2;ratioP2
21886;SDS011;11108;49.988;8.182;2022-12-07T00:02:11;2.40;;;2.30;;
21886;SDS011;11108;49.988;8.182;2022-12-07T00:04:36;2.40;;;2.20;;
21886;SDS011;11108;49.988;8.182;2022-12-07T00:07:01;2.23;;;2.13;;
21886;SDS011;11108;49.988;8.182;2022-12-07T00:09:27;1.93;;;1.83;;
21886;SDS011;11108;49.988;8.182;2022-12-07T00:11:52;2.00;;;1.90;;
21886;SDS011;11108;49.988;8.182;2022-12-07T00:14:18;2.10;;;2.00;;
21886;SDS011;11108;49.988;8.182;2022-12-07T00:16:44;2.20;;;1.97;;
21886;SDS011;11108;49.988;8.182;2022-12-07T00:19:10;2.43;;;2.23;;
21886;SDS011;11108;49.988;8.182;2022-12-07T00:21:35;2.20;;;2.10;;
21886;SDS011;11108;49.988;8.182;2022-12-07T00:24:01;2.30;;;2.10;;
21886;SDS011;11108;49.988;8.182;2022-12-07T00:26:27;2.20;;;2.00;;
21886;SDS011;11108;49.988;8.182;2022-12-07T00:28:54;1.60;;;1.60;;
21886;SDS011;11108;49.988;8.182;2022-12-07T00:31:20;2.03;;;1.93;;
21886;SDS011;11108;49.988;8.182;2022-12-07T00:33:46;2.20;;;2.10;;
21886;SDS011;11108;49.988;8.182;2022-12-07T00:36:12;2.10;;;2.00;;
21886;SDS011;11108;49.988;8.182;2022-12-07T00:38:38;1.93;;;1.80;;
21886;SDS011;11108;49.988;8.182;2022-12-07T00:41:05;2.83;;;2.23;;
21886;SDS011;11108;49.988;8.182;2022-12-07T00:43:30;2.13;;;1.90;;
21886;SDS011;11108;49.988;8.182;2022-12-07T00:45:55;2.30;;;2.10;;
21886;SDS011;11108;49.988;8.182;2022-12-07T00:48:21;1.87;;;1.77;;
21886;SDS011;11108;49.988;8.182;2022-12-07T00:50:46;1.90;;;1.80;;
21886;SDS011;11108;49.988;8.182;2022-12-07T00:53:11;1.93;;;1.83;;
21886;SDS011;11108;49.988;8.182;2022-12-07T00:55:37;2.13;;;2.03;;
21886;SDS011;11108;49.988;8.182;2022-12-07T00:58:02;1.90;;;1.80;;
21886;SDS011;11108;49.988;8.182;2022-12-07T01:00:28;2.00;;;1.90;;
21886;SDS011;11108;49.988;8.182;2022-12-07T01:02:53;2.03;;;1.93;;
21886;SDS011;11108;49.988;8.182;2022-12-07T01:05:18;2.60;;;2.00;;
21886;SDS011;11108;49.988;8.182;2022-12-07T01:07:44;2.00;;;1.90;;
21886;SDS011;11108;49.988;8.182;2022-12-07T01:10:09;2.00;;;1.90;;
21886;SDS011;11108;49.988;8.182;2022-12-07T01:12:34;1.90;;;1.80;;
21886;SDS011;11108;49.988;8.182;2022-12-07T01:14:59;3.07;;;2.23;;
21886;SDS011;11108;49.988;8.182;2022-12-07T01:17:25;2.20;;;2.10;;
21886;SDS011;11108;49.988;8.182;2022-12-07T01:19:50;1.53;;;1.53;;
21886;SDS011;11108;49.988;8.182;2022-12-07T01:22:15;1.63;;;1.57;;
21886;SDS011;11108;49.988;8.182;2022-12-07T01:24:40;1.90;;;1.80;;
21886;SDS011;11108;49.988;8.182;2022-12-07T01:27:05;1.90;;;1.80;;
21886;SDS011;11108;49.988;8.182;2022-12-07T01:29:30;2.37;;;2.20;;
21886;SDS011;11108;49.988;8.182;2022-12-07T01:31:56;1.70;;;1.60;;
21886;SDS011;11108;49.988;8.182;2022-12-07T01:34:21;1.70;;;1.60;;
21886;SDS011;11108;49.988;8.182;2022-12-07T01:36:46;1.93;;;1.83;;
21886;SDS011;11108;49.988;8.182;2022-12-07T01:39:11;1.60;;;1.50;;
21886;SDS011;11108;49.988;8.182;2022-12-07T01:41:37;1.90;;;1.80;;
21886;SDS011;11108;49.988;8.182;2022-12-07T01:46:43;1.87;;;1.77;;
21886;SDS011;11108;49.988;8.182;2022-12-07T01:49:10;3.00;;;2.30;;
21886;SDS011;11108;49.988;8.182;2022-12-07T01:51:37;1.83;;;1.73;;
21886;SDS011;11108;49.988;8.182;2022-12-07T01:54:05;1.77;;;1.70;;
21886;SDS011;11108;49.988;8.182;2022-12-07T01:56:30;1.70;;;1.60;;
21886;SDS011;11108;49.988;8.182;2022-12-07T01:58:56;2.20;;;2.10;;
21886;SDS011;11108;49.988;8.182;2022-12-07T02:01:22;1.97;;;1.87;;
21886;SDS011;11108;49.988;8.182;2022-12-07T02:03:47;1.77;;;1.70;;
21886;SDS011;11108;49.988;8.182;2022-12-07T02:06:14;2.20;;;1.77;;
21886;SDS011;11108;49.988;8.182;2022-12-07T02:08:41;1.60;;;1.50;;
21886;SDS011;11108;49.988;8.182;2022-12-07T02:11:07;1.97;;;1.80;;
21886;SDS011;11108;49.988;8.182;2022-12-07T02:13:33;1.97;;;1.87;;
21886;SDS011;11108;49.988;8.182;2022-12-07T02:18:44;1.93;;;1.83;;
21886;SDS011;11108;49.988;8.182;2022-12-07T02:24:03;1.70;;;1.60;;
21886;SDS011;11108;49.988;8.182;2022-12-07T02:29:12;2.07;;;1.60;;
21886;SDS011;11108;49.988;8.182;2022-12-07T02:31:42;1.67;;;1.60;;
21886;SDS011;11108;49.988;8.182;2022-12-07T02:34:11;2.00;;;1.83;;
21886;SDS011;11108;49.988;8.182;2022-12-07T02:36:40;1.90;;;1.67;;
21886;SDS011;11108;49.988;8.182;2022-12-07T02:39:11;1.73;;;1.63;;
21886;SDS011;11108;49.988;8.182;2022-12-07T02:41:43;1.63;;;1.53;;
21886;SDS011;11108;49.988;8.182;2022-12-07T02:44:10;2.57;;;1.80;;
21886;SDS011;11108;49.988;8.182;2022-12-07T02:46:54;1.70;;;1.60;;
21886;SDS011;11108;49.988;8.182;2022-12-07T02:49:21;1.80;;;1.70;;
21886;SDS011;11108;49.988;8.182;2022-12-07T02:51:47;1.87;;;1.73;;
21886;SDS011;11108;49.988;8.182;2022-12-07T02:54:16;1.93;;;1.83;;
21886;SDS011;11108;49.988;8.182;2022-12-07T03:04:23;2.07;;;1.97;;
21886;SDS011;11108;49.988;8.182;2022-12-07T03:07:05;1.53;;;1.53;;
21886;SDS011;11108;49.988;8.182;2022-12-07T03:09:42;1.70;;;1.60;;
21886;SDS011;11108;49.988;8.182;2022-12-07T03:12:17;1.90;;;1.80;;
21886;SDS011;11108;49.988;8.182;2022-12-07T03:14:49;1.57;;;1.57;;
21886;SDS011;11108;49.988;8.182;2022-12-07T03:17:27;1.80;;;1.50;;
21886;SDS011;11108;49.988;8.182;2022-12-07T03:19:56;1.47;;;1.40;;
21886;SDS011;11108;49.988;8.182;2022-12-07T03:22:23;1.33;;;1.33;;
21886;SDS011;11108;49.988;8.182;2022-12-07T03:24:52;1.60;;;1.50;;
21886;SDS011;11108;49.988;8.182;2022-12-07T03:27:20;2.03;;;1.83;;
21886;SDS011;11108;49.988;8.182;2022-12-07T03:29:48;2.30;;;1.43;;
21886;SDS011;11108;49.988;8.182;2022-12-07T03:32:15;1.40;;;1.40;;
21886;SDS011;11108;49.988;8.182;2022-12-07T03:34:46;1.47;;;1.47;;
21886;SDS011;11108;49.988;8.182;2022-12-07T03:42:40;1.80;;;1.70;;
21886;SDS011;11108;49.988;8.182;2022-12-07T03:45:05;2.03;;;1.90;;
21886;SDS011;11108;49.988;8.182;2022-12-07T03:47:42;1.63;;;1.43;;
21886;SDS011;11108;49.988;8.182;2022-12-07T03:55:26;1.80;;;1.70;;
21886;SDS011;11108;49.988;8.182;2022-12-07T03:57:53;1.60;;;1.50;;
21886;SDS011;11108;49.988;8.182;2022-12-07T04:00:19;1.90;;;1.80;;
21886;SDS011;11108;49.988;8.182;2022-12-07T04:02:45;1.60;;;1.60;;
21886;SDS011;11108;49.988;8.182;2022-12-07T04:05:10;2.00;;;1.90;;
21886;SDS011;11108;49.988;8.182;2022-12-07T04:07:35;1.57;;;1.47;;
21886;SDS011;11108;49.988;8.182;2022-12-07T04:10:00;1.70;;;1.60;;
21886;SDS011;11108;49.988;8.182;2022-12-07T04:12:25;1.23;;;1.23;;
21886;SDS011;11108;49.988;8.182;2022-12-07T04:14:51;1.60;;;1.47;;
21886;SDS011;11108;49.988;8.182;2022-12-07T04:17:16;1.70;;;1.60;;
21886;SDS011;11108;49.988;8.182;2022-12-07T04:19:41;2.00;;;1.90;;
21886;SDS011;11108;49.988;8.182;2022-12-07T04:22:06;1.40;;;1.40;;
21886;SDS011;11108;49.988;8.182;2022-12-07T04:24:32;1.53;;;1.33;;
21886;SDS011;11108;49.988;8.182;2022-12-07T04:26:57;1.40;;;1.40;;
21886;SDS011;11108;49.988;8.182;2022-12-07T04:29:22;1.27;;;1.23;;
21886;SDS011;11108;49.988;8.182;2022-12-07T04:31:48;1.97;;;1.27;;
21886;SDS011;11108;49.988;8.182;2022-12-07T04:34:13;1.47;;;1.37;;
21886;SDS011;11108;49.988;8.182;2022-12-07T04:36:39;1.70;;;1.60;;
21886;SDS011;11108;49.988;8.182;2022-12-07T04:39:05;1.60;;;1.50;;
21886;SDS011;11108;49.988;8.182;2022-12-07T04:41:30;1.30;;;1.30;;
21886;SDS011;11108;49.988;8.182;2022-12-07T04:43:56;1.50;;;1.50;;
21886;SDS011;11108;49.988;8.182;2022-12-07T04:46:22;1.53;;;1.50;;
21886;SDS011;11108;49.988;8.182;2022-12-07T04:48:47;1.47;;;1.37;;
21886;SDS011;11108;49.988;8.182;2022-12-07T04:51:14;1.57;;;1.47;;
21886;SDS011;11108;49.988;8.182;2022-12-07T04:53:40;1.50;;;1.50;;
21886;SDS011;11108;49.988;8.182;2022-12-07T04:56:05;1.60;;;1.50;;
21886;SDS011;11108;49.988;8.182;2022-12-07T04:58:30;1.90;;;1.80;;
21886;SDS011;11108;49.988;8.182;2022-12-07T05:00:56;1.30;;;1.30;;
21886;SDS011;11108;49.988;8.182;2022-12-07T05:03:21;1.63;;;1.53;;
21886;SDS011;11108;49.988;8.182;2022-12-07T05:05:46;1.40;;;1.40;;
21886;SDS011;11108;49.988;8.182;2022-12-07T05:08:11;1.70;;;1.60;;
21886;SDS011;11108;49.988;8.182;2022-12-07T05:10:36;1.27;;;1.27;;
21886;SDS011;11108;49.988;8.182;2022-12-07T05:13:02;1.37;;;1.37;;
21886;SDS011;11108;49.988;8.182;2022-12-07T05:15:27;1.60;;;1.50;;
21886;SDS011;11108;49.988;8.182;2022-12-07T05:17:52;1.70;;;1.60;;
21886;SDS011;11108;49.988;8.182;2022-12-07T05:20:17;1.60;;;1.50;;
21886;SDS011;11108;49.988;8.182;2022-12-07T05:22:42;1.20;;;1.20;;
21886;SDS011;11108;49.988;8.182;2022-12-07T05:25:08;1.30;;;1.30;;
21886;SDS011;11108;49.988;8.182;2022-12-07T05:27:33;1.20;;;1.20;;
21886;SDS011;11108;49.988;8.182;2022-12-07T05:29:58;1.50;;;1.40;;
21886;SDS011;11108;49.988;8.182;2022-12-07T05:32:23;1.10;;;1.10;;
21886;SDS011;11108;49.988;8.182;2022-12-07T05:34:49;1.63;;;1.53;;
21886;SDS011;11108;49.988;8.182;2022-12-07T05:37:14;1.50;;;1.43;;
21886;SDS011;11108;49.988;8.182;2022-12-07T05:39:39;1.27;;;1.23;;
21886;SDS011;11108;49.988;8.182;2022-12-07T05:42:08;1.30;;;1.30;;
21886;SDS011;11108;49.988;8.182;2022-12-07T05:44:43;1.10;;;1.10;;
21886;SDS011;11108;49.988;8.182;2022-12-07T05:47:09;1.30;;;1.30;;
21886;SDS011;11108;49.988;8.182;2022-12-07T05:49:34;1.30;;;1.30;;
21886;SDS011;11108;49.988;8.182;2022-12-07T05:52:00;1.50;;;1.40;;
21886;SDS011;11108;49.988;8.182;2022-12-07T05:54:25;1.53;;;1.43;;
21886;SDS011;11108;49.988;8.182;2022-12-07T05:56:50;1.13;;;1.13;;
21886;SDS011;11108;49.988;8.182;2022-12-07T05:59:15;1.20;;;1.20;;
21886;SDS011;11108;49.988;8.182;2022-12-07T06:01:56;1.47;;;1.47;;
21886;SDS011;11108;49.988;8.182;2022-12-07T06:04:22;1.50;;;1.40;;
21886;SDS011;11108;49.988;8.182;2022-12-07T06:06:47;1.30;;;1.30;;
21886;SDS011;11108;49.988;8.182;2022-12-07T06:09:13;1.60;;;1.50;;
21886;SDS011;11108;49.988;8.182;2022-12-07T06:11:39;1.40;;;1.40;;
21886;SDS011;11108;49.988;8.182;2022-12-07T06:14:23;1.30;;;1.30;;
21886;SDS011;11108;49.988;8.182;2022-12-07T06:16:48;1.50;;;1.40;;
21886;SDS011;11108;49.988;8.182;2022-12-07T06:19:13;1.63;;;1.53;;
21886;SDS011;11108;49.988;8.182;2022-12-07T06:21:38;1.50;;;1.40;;
21886;SDS011;11108;49.988;8.182;2022-12-07T06:24:04;1.53;;;1.43;;
21886;SDS011;11108;49.988;8.182;2022-12-07T06:26:29;1.33;;;1.33;;
21886;SDS011;11108;49.988;8.182;2022-12-07T06:28:54;1.17;;;1.17;;
21886;SDS011;11108;49.988;8.182;2022-12-07T06:31:20;1.40;;;1.40;;
21886;SDS011;11108;49.988;8.182;2022-12-07T06:33:45;1.70;;;1.57;;
21886;SDS011;11108;49.988;8.182;2022-12-07T06:36:10;1.03;;;1.03;;
21886;SDS011;11108;49.988;8.182;2022-12-07T06:38:35;1.30;;;1.30;;
21886;SDS011;11108;49.988;8.182;2022-12-07T06:41:01;1.13;;;1.10;;
21886;SDS011;11108;49.988;8.182;2022-12-07T06:43:26;1.20;;;1.20;;
21886;SDS011;11108;49.988;8.182;2022-12-07T06:45:52;1.00;;;1.00;;
21886;SDS011;11108;49.988;8.182;2022-12-07T06:48:17;1.57;;;1.47;;
21886;SDS011;11108;49.988;8.182;2022-12-07T06:50:46;1.33;;;1.20;;
21886;SDS011;11108;49.988;8.182;2022-12-07T06:53:12;1.67;;;1.40;;
21886;SDS011;11108;49.988;8.182;2022-12-07T06:55:37;1.40;;;1.30;;
21886;SDS011;11108;49.988;8.182;2022-12-07T06:58:02;1.17;;;1.17;;
21886;SDS011;11108;49.988;8.182;2022-12-07T07:00:28;1.47;;;1.40;;
21886;SDS011;11108;49.988;8.182;2022-12-07T07:02:53;2.10;;;1.70;;
21886;SDS011;11108;49.988;8.182;2022-12-07T07:05:18;1.30;;;1.30;;
21886;SDS011;11108;49.988;8.182;2022-12-07T07:07:46;1.30;;;1.20;;
21886;SDS011;11108;49.988;8.182;2022-12-07T07:10:11;1.40;;;1.40;;
21886;SDS011;11108;49.988;8.182;2022-12-07T07:12:36;1.43;;;1.40;;
21886;SDS011;11108;49.988;8.182;2022-12-07T07:15:01;1.77;;;1.53;;
21886;SDS011;11108;49.988;8.182;2022-12-07T07:17:27;1.30;;;1.20;;
21886;SDS011;11108;49.988;8.182;2022-12-07T07:19:52;1.20;;;1.20;;
21886;SDS011;11108;49.988;8.182;2022-12-07T07:22:17;1.30;;;1.30;;
21886;SDS011;11108;49.988;8.182;2022-12-07T07:24:42;1.43;;;1.40;;
21886;SDS011;11108;49.988;8.182;2022-12-07T07:27:07;1.70;;;1.57;;
21886;SDS011;11108;49.988;8.182;2022-12-07T07:29:33;1.20;;;1.20;;
21886;SDS011;11108;49.988;8.182;2022-12-07T07:31:59;1.57;;;1.47;;
21886;SDS011;11108;49.988;8.182;2022-12-07T07:34:24;1.27;;;1.20;;
21886;SDS011;11108;49.988;8.182;2022-12-07T07:36:49;1.20;;;1.20;;
21886;SDS011;11108;49.988;8.182;2022-12-07T07:39:14;3.90;;;1.20;;
21886;SDS011;11108;49.988;8.182;2022-12-07T07:41:40;0.93;;;0.93;;
21886;SDS011;11108;49.988;8.182;2022-12-07T07:44:05;1.53;;;1.40;;
21886;SDS011;11108;49.988;8.182;2022-12-07T07:46:30;1.60;;;1.50;;
21886;SDS011;11108;49.988;8.182;2022-12-07T07:48:56;1.20;;;1.20;;
21886;SDS011;11108;49.988;8.182;2022-12-07T07:51:21;1.33;;;1.33;;
21886;SDS011;11108;49.988;8.182;2022-12-07T07:53:46;1.40;;;1.40;;
21886;SDS011;11108;49.988;8.182;2022-12-07T07:56:11;1.80;;;1.30;;
21886;SDS011;11108;49.988;8.182;2022-12-07T07:58:37;1.30;;;1.23;;
21886;SDS011;11108;49.988;8.182;2022-12-07T08:01:04;1.97;;;1.50;;
21886;SDS011;11108;49.988;8.182;2022-12-07T08:03:30;1.30;;;1.30;;
21886;SDS011;11108;49.988;8.182;2022-12-07T08:05:55;1.20;;;1.20;;
21886;SDS011;11108;49.988;8.182;2022-12-07T08:08:20;1.27;;;1.27;;
21886;SDS011;11108;49.988;8.182;2022-12-07T08:10:45;1.23;;;1.20;;
21886;SDS011;11108;49.988;8.182;2022-12-07T08:13:11;1.00;;;1.00;;
21886;SDS011;11108;49.988;8.182;2022-12-07T08:15:36;1.17;;;1.17;;
21886;SDS011;11108;49.988;8.182;2022-12-07T08:18:02;1.40;;;1.40;;
21886;SDS011;11108;49.988;8.182;2022-12-07T08:20:29;1.13;;;1.13;;
21886;SDS011;11108;49.988;8.182;2022-12-07T08:22:54;1.40;;;1.40;;
21886;SDS011;11108;49.988;8.182;2022-12-07T08:25:20;1.40;;;1.30;;
21886;SDS011;11108;49.988;8.182;2022-12-07T08:27:46;1.00;;;1.00;;
21886;SDS011;11108;49.988;8.182;2022-12-07T08:30:12;1.00;;;1.00;;
21886;SDS011;11108;49.988;8.182;2022-12-07T08:32:37;1.30;;;1.20;;
21886;SDS011;11108;49.988;8.182;2022-12-07T08:35:02;1.40;;;1.30;;
21886;SDS011;11108;49.988;8.182;2022-12-07T08:37:27;2.67;;;1.30;;
21886;SDS011;11108;49.988;8.182;2022-12-07T08:39:53;1.37;;;1.27;;
21886;SDS011;11108;49.988;8.182;2022-12-07T08:42:19;1.83;;;1.27;;
21886;SDS011;11108;49.988;8.182;2022-12-07T08:44:45;1.07;;;1.07;;
21886;SDS011;11108;49.988;8.182;2022-12-07T08:47:10;1.20;;;1.20;;
21886;SDS011;11108;49.988;8.182;2022-12-07T08:49:38;1.90;;;1.00;;
21886;SDS011;11108;49.988;8.182;2022-12-07T08:52:04;1.87;;;1.07;;
21886;SDS011;11108;49.988;8.182;2022-12-07T08:54:30;1.10;;;1.10;;
21886;SDS011;11108;49.988;8.182;2022-12-07T08:56:55;4.77;;;2.40;;
21886;SDS011;11108;49.988;8.182;2022-12-07T08:59:21;4.03;;;2.47;;
21886;SDS011;11108;49.988;8.182;2022-12-07T09:01:46;8.10;;;2.60;;
21886;SDS011;11108;49.988;8.182;2022-12-07T09:04:12;14.37;;;3.90;;
21886;SDS011;11108;49.988;8.182;2022-12-07T09:06:37;10.27;;;3.50;;
21886;SDS011;11108;49.988;8.182;2022-12-07T09:09:02;10.03;;;3.20;;
21886;SDS011;11108;49.988;8.182;2022-12-07T09:11:28;10.97;;;3.07;;
21886;SDS011;11108;49.988;8.182;2022-12-07T09:13:53;7.53;;;3.20;;
21886;SDS011;11108;49.988;8.182;2022-12-07T09:16:18;10.43;;;3.27;;
21886;SDS011;11108;49.988;8.182;2022-12-07T09:18:43;7.50;;;3.23;;
21886;SDS011;11108;49.988;8.182;2022-12-07T09:21:09;11.23;;;2.93;;
21886;SDS011;11108;49.988;8.182;2022-12-07T09:23:34;5.03;;;2.70;;
21886;SDS011;11108;49.988;8.182;2022-12-07T09:26:00;8.00;;;2.80;;
21886;SDS011;11108;49.988;8.182;2022-12-07T09:28:25;6.67;;;2.60;;
21886;SDS011;11108;49.988;8.182;2022-12-07T09:30:50;7.37;;;2.73;;
21886;SDS011;11108;49.988;8.182;2022-12-07T09:33:16;7.07;;;2.77;;
21886;SDS011;11108;49.988;8.182;2022-12-07T09:35:45;7.07;;;2.90;;
21886;SDS011;11108;49.988;8.182;2022-12-07T09:38:10;3.80;;;1.93;;
21886;SDS011;11108;49.988;8.182;2022-12-07T09:40:36;3.60;;;2.50;;
21886;SDS011;11108;49.988;8.182;2022-12-07T09:43:01;8.57;;;2.60;;
21886;SDS011;11108;49.988;8.182;2022-12-07T09:45:31;5.50;;;2.67;;
21886;SDS011;11108;49.988;8.182;2022-12-07T09:47:58;2.93;;;1.90;;
21886;SDS011;11108;49.988;8.182;2022-12-07T09:50:24;7.77;;;2.30;;
21886;SDS011;11108;49.988;8.182;2022-12-07T09:52:50;5.43;;;1.90;;
21886;SDS011;11108;49.988;8.182;2022-12-07T09:55:22;2.60;;;2.10;;
21886;SDS011;11108;49.988;8.182;2022-12-07T09:57:49;1.80;;;1.70;;
21886;SDS011;11108;49.988;8.182;2022-12-07T10:00:17;2.63;;;1.70;;
21886;SDS011;11108;49.988;8.182;2022-12-07T10:02:59;4.53;;;2.00;;
21886;SDS011;11108;49.988;8.182;2022-12-07T10:05:32;5.07;;;1.90;;
21886;SDS011;11108;49.988;8.182;2022-12-07T10:07:59;2.30;;;1.80;;
21886;SDS011;11108;49.988;8.182;2022-12-07T10:10:25;1.87;;;1.53;;
21886;SDS011;11108;49.988;8.182;2022-12-07T10:12:59;2.10;;;1.63;;
21886;SDS011;11108;49.988;8.182;2022-12-07T10:15:45;5.77;;;2.27;;
21886;SDS011;11108;49.988;8.182;2022-12-07T10:23:35;2.97;;;1.43;;
21886;SDS011;11108;49.988;8.182;2022-12-07T10:26:15;4.03;;;1.43;;
21886;SDS011;11108;49.988;8.182;2022-12-07T10:28:44;2.00;;;1.37;;
21886;SDS011;11108;49.988;8.182;2022-12-07T10:31:16;2.13;;;1.70;;
21886;SDS011;11108;49.988;8.182;2022-12-07T10:33:49;4.83;;;1.70;;
21886;SDS011;11108;49.988;8.182;2022-12-07T10:36:16;1.63;;;1.20;;
21886;SDS011;11108;49.988;8.182;2022-12-07T10:38:50;3.70;;;1.53;;
21886;SDS011;11108;49.988;8.182;2022-12-07T10:41:15;2.03;;;1.50;;
21886;SDS011;11108;49.988;8.182;2022-12-07T10:43:48;4.00;;;1.67;;
21886;SDS011;11108;49.988;8.182;2022-12-07T10:49:08;3.70;;;1.80;;
21886;SDS011;11108;49.988;8.182;2022-12-07T10:51:42;2.67;;;1.10;;
21886;SDS011;11108;49.988;8.182;2022-12-07T10:57:00;1.70;;;1.20;;
21886;SDS011;11108;49.988;8.182;2022-12-07T11:01:57;2.00;;;1.77;;
21886;SDS011;11108;49.988;8.182;2022-12-07T11:04:35;2.27;;;1.53;;
21886;SDS011;11108;49.988;8.182;2022-12-07T11:15:17;3.60;;;1.40;;
21886;SDS011;11108;49.988;8.182;2022-12-07T11:17:56;2.63;;;1.70;;
21886;SDS011;11108;49.988;8.182;2022-12-07T11:22:50;1.67;;;1.50;;
21886;SDS011;11108;49.988;8.182;2022-12-07T11:25:25;3.73;;;1.60;;
21886;SDS011;11108;49.988;8.182;2022-12-07T11:30:26;2.43;;;1.50;;
21886;SDS011;11108;49.988;8.182;2022-12-07T11:38:08;3.33;;;1.43;;
21886;SDS011;11108;49.988;8.182;2022-12-07T11:40:35;1.70;;;1.10;;
21886;SDS011;11108;49.988;8.182;2022-12-07T11:45:37;1.47;;;1.30;;
21886;SDS011;11108;49.988;8.182;2022-12-07T11:48:03;1.43;;;1.20;;
21886;SDS011;11108;49.988;8.182;2022-12-07T11:50:46;2.50;;;0.90;;
21886;SDS011;11108;49.988;8.182;2022-12-07T11:55:42;3.77;;;1.60;;
21886;SDS011;11108;49.988;8.182;2022-12-07T12:00:54;1.27;;;1.17;;
21886;SDS011;11108;49.988;8.182;2022-12-07T12:03:23;4.33;;;1.57;;
21886;SDS011;11108;49.988;8.182;2022-12-07T12:05:55;3.17;;;1.33;;
21886;SDS011;11108;49.988;8.182;2022-12-07T12:08:27;3.60;;;1.20;;
21886;SDS011;11108;49.988;8.182;2022-12-07T12:11:08;2.20;;;1.40;;
21886;SDS011;11108;49.988;8.182;2022-12-07T12:19:32;1.80;;;1.60;;
21886;SDS011;11108;49.988;8.182;2022-12-07T12:22:08;2.70;;;1.23;;
21886;SDS011;11108;49.988;8.182;2022-12-07T12:24:35;1.90;;;1.10;;
21886;SDS011;11108;49.988;8.182;2022-12-07T12:27:05;2.10;;;1.20;;
21886;SDS011;11108;49.988;8.182;2022-12-07T12:29:33;1.07;;;0.90;;
21886;SDS011;11108;49.988;8.182;2022-12-07T12:32:18;1.97;;;1.00;;
21886;SDS011;11108;49.988;8.182;2022-12-07T12:34:59;2.83;;;1.20;;
21886;SDS011;11108;49.988;8.182;2022-12-07T12:40:24;1.83;;;1.27;;
21886;SDS011;11108;49.988;8.182;2022-12-07T12:42:57;2.23;;;1.20;;
21886;SDS011;11108;49.988;8.182;2022-12-07T12:45:29;2.10;;;1.23;;
21886;SDS011;11108;49.988;8.182;2022-12-07T12:52:52;1.20;;;1.10;;
21886;SDS011;11108;49.988;8.182;2022-12-07T12:55:19;1.93;;;1.17;;
21886;SDS011;11108;49.988;8.182;2022-12-07T12:57:47;1.30;;;1.20;;
21886;SDS011;11108;49.988;8.182;2022-12-07T13:00:22;1.53;;;1.10;;
21886;SDS011;11108;49.988;8.182;2022-12-07T13:05:18;2.30;;;1.17;;
21886;SDS011;11108;49.988;8.182;2022-12-07T13:15:41;1.57;;;1.03;;
21886;SDS011;11108;49.988;8.182;2022-12-07T13:18:34;2.47;;;1.23;;
21886;SDS011;11108;49.988;8.182;2022-12-07T13:23:32;1.47;;;1.20;;
21886;SDS011;11108;49.988;8.182;2022-12-07T13:28:45;1.50;;;1.10;;
21886;SDS011;11108;49.988;8.182;2022-12-07T13:31:13;1.77;;;1.20;;
21886;SDS011;11108;49.988;8.182;2022-12-07T13:33:40;1.63;;;1.10;;
21886;SDS011;11108;49.988;8.182;2022-12-07T13:36:11;1.43;;;1.20;;
21886;SDS011;11108;49.988;8.182;2022-12-07T13:38:39;2.03;;;0.90;;
21886;SDS011;11108;49.988;8.182;2022-12-07T13:43:45;1.30;;;1.20;;
21886;SDS011;11108;49.988;8.182;2022-12-07T13:46:12;2.17;;;0.97;;
21886;SDS011;11108;49.988;8.182;2022-12-07T13:51:14;2.63;;;1.30;;
21886;SDS011;11108;49.988;8.182;2022-12-07T13:53:45;2.07;;;1.20;;
21886;SDS011;11108;49.988;8.182;2022-12-07T13:56:12;1.87;;;1.17;;
21886;SDS011;11108;49.988;8.182;2022-12-07T13:58:39;0.97;;;0.97;;
21886;SDS011;11108;49.988;8.182;2022-12-07T14:01:04;1.03;;;0.90;;
21886;SDS011;11108;49.988;8.182;2022-12-07T14:03:33;1.70;;;1.10;;
21886;SDS011;11108;49.988;8.182;2022-12-07T14:06:04;3.00;;;1.20;;
21886;SDS011;11108;49.988;8.182;2022-12-07T14:08:29;3.13;;;1.30;;
21886;SDS011;11108;49.988;8.182;2022-12-07T14:10:55;1.43;;;1.13;;
21886;SDS011;11108;49.988;8.182;2022-12-07T14:13:37;1.43;;;0.93;;
21886;SDS011;11108;49.988;8.182;2022-12-07T14:16:06;1.63;;;1.10;;
21886;SDS011;11108;49.988;8.182;2022-12-07T14:18:40;1.37;;;1.10;;
21886;SDS011;11108;49.988;8.182;2022-12-07T14:21:14;2.27;;;1.10;;
21886;SDS011;11108;49.988;8.182;2022-12-07T14:23:40;1.30;;;1.20;;
21886;SDS011;11108;49.988;8.182;2022-12-07T14:26:39;2.23;;;1.07;;
21886;SDS011;11108;49.988;8.182;2022-12-07T14:29:18;1.10;;;1.00;;
21886;SDS011;11108;49.988;8.182;2022-12-07T14:31:43;1.80;;;1.33;;
21886;SDS011;11108;49.988;8.182;2022-12-07T14:34:11;0.93;;;0.80;;
21886;SDS011;11108;49.988;8.182;2022-12-07T14:36:36;1.20;;;1.10;;
21886;SDS011;11108;49.988;8.182;2022-12-07T14:39:01;3.00;;;1.20;;
21886;SDS011;11108;49.988;8.182;2022-12-07T14:41:29;2.40;;;1.60;;
21886;SDS011;11108;49.988;8.182;2022-12-07T14:44:13;1.00;;;1.00;;
21886;SDS011;11108;49.988;8.182;2022-12-07T14:46:38;1.13;;;0.93;;
21886;SDS011;11108;49.988;8.182;2022-12-07T14:49:03;1.87;;;1.13;;
21886;SDS011;11108;49.988;8.182;2022-12-07T14:51:32;1.23;;;1.00;;
21886;SDS011;11108;49.988;8.182;2022-12-07T14:54:01;1.10;;;1.10;;
21886;SDS011;11108;49.988;8.182;2022-12-07T14:56:26;2.40;;;1.10;;
21886;SDS011;11108;49.988;8.182;2022-12-07T14:58:52;1.00;;;0.80;;
21886;SDS011;11108;49.988;8.182;2022-12-07T15:01:18;1.83;;;1.00;;
21886;SDS011;11108;49.988;8.182;2022-12-07T15:03:46;3.00;;;1.27;;
21886;SDS011;11108;49.988;8.182;2022-12-07T15:06:15;2.27;;;1.10;;
21886;SDS011;11108;49.988;8.182;2022-12-07T15:08:44;1.47;;;1.37;;
21886;SDS011;11108;49.988;8.182;2022-12-07T15:11:11;5.63;;;1.13;;
21886;SDS011;11108;49.988;8.182;2022-12-07T15:13:37;2.90;;;1.10;;
21886;SDS011;11108;49.988;8.182;2022-12-07T15:16:20;2.17;;;1.10;;
21886;SDS011;11108;49.988;8.182;2022-12-07T15:18:46;3.33;;;0.93;;
21886;SDS011;11108;49.988;8.182;2022-12-07T15:21:14;4.50;;;1.10;;
21886;SDS011;11108;49.988;8.182;2022-12-07T15:23:40;2.70;;;1.77;;
21886;SDS011;11108;49.988;8.182;2022-12-07T15:26:05;3.33;;;1.20;;
21886;SDS011;11108;49.988;8.182;2022-12-07T15:28:30;1.47;;;1.37;;
21886;SDS011;11108;49.988;8.182;2022-12-07T15:30:56;1.33;;;1.00;;
21886;SDS011;11108;49.988;8.182;2022-12-07T15:33:21;1.77;;;1.00;;
21886;SDS011;11108;49.988;8.182;2022-12-07T15:35:46;2.50;;;1.20;;
21886;SDS011;11108;49.988;8.182;2022-12-07T15:38:12;1.60;;;1.07;;
21886;SDS011;11108;49.988;8.182;2022-12-07T15:40:37;1.53;;;1.10;;
21886;SDS011;11108;49.988;8.182;2022-12-07T15:43:02;2.20;;;0.83;;
21886;SDS011;11108;49.988;8.182;2022-12-07T15:45:28;1.20;;;0.83;;
21886;SDS011;11108;49.988;8.182;2022-12-07T15:47:53;2.80;;;1.10;;
21886;SDS011;11108;49.988;8.182;2022-12-07T15:50:20;1.57;;;0.87;;
21886;SDS011;11108;49.988;8.182;2022-12-07T15:52:45;1.70;;;0.90;;
21886;SDS011;11108;49.988;8.182;2022-12-07T15:55:10;1.50;;;1.10;;
21886;SDS011;11108;49.988;8.182;2022-12-07T15:57:36;1.73;;;1.00;;
21886;SDS011;11108;49.988;8.182;2022-12-07T16:00:06;1.60;;;1.03;;
21886;SDS011;11108;49.988;8.182;2022-12-07T16:02:31;1.03;;;1.00;;
21886;SDS011;11108;49.988;8.182;2022-12-07T16:04:56;2.73;;;1.00;;
21886;SDS011;11108;49.988;8.182;2022-12-07T16:07:22;2.30;;;0.90;;
21886;SDS011;11108;49.988;8.182;2022-12-07T16:09:47;1.00;;;0.90;;
21886;SDS011;11108;49.988;8.182;2022-12-07T16:12:14;1.70;;;1.00;;
21886;SDS011;11108;49.988;8.182;2022-12-07T16:14:39;1.77;;;0.90;;
21886;SDS011;11108;49.988;8.182;2022-12-07T16:17:05;0.90;;;0.80;;
21886;SDS011;11108;49.988;8.182;2022-12-07T16:19:31;0.93;;;0.70;;
21886;SDS011;11108;49.988;8.182;2022-12-07T16:21:56;0.90;;;0.90;;
21886;SDS011;11108;49.988;8.182;2022-12-07T16:24:21;3.77;;;0.97;;
21886;SDS011;11108;49.988;8.182;2022-12-07T16:26:47;1.23;;;1.13;;
21886;SDS011;11108;49.988;8.182;2022-12-07T16:29:12;1.33;;;1.20;;
21886;SDS011;11108;49.988;8.182;2022-12-07T16:31:38;1.80;;;1.20;;
21886;SDS011;11108;49.988;8.182;2022-12-07T16:34:03;1.10;;;1.00;;